Time;durP1;ratioP1;P1;durP2;ratioP2;P2;SDS_P1;SDS_P2;PMS_P1;PMS_P2;Temp;Humidity;BMP_temperature;BMP_pressure;BME280_temperature;BME280_humidity;BME280_pressure;Samples;Min_cycle;Max_cycle;Signal;HPM_P1;HPM_P2
2023/05/31 00:00:58;;;;;;;26.10;17.03;;;9.80;86.80;;;;;;5015242;28;20181;-86
2023/05/31 00:03:23;;;;;;;23.80;15.90;;;9.80;87.10;;;;;;5016303;28;20219;-84
2023/05/31 00:05:49;;;;;;;22.17;16.00;;;9.70;87.60;;;;;;5016494;28;20177;-85
2023/05/31 00:08:14;;;;;;;27.73;15.17;;;9.70;87.80;;;;;;5015125;28;20180;-85
2023/05/31 00:10:40;;;;;;;24.17;17.77;;;9.70;87.80;;;;;;5015242;28;20181;-85
2023/05/31 00:13:05;;;;;;;26.80;17.77;;;9.50;87.60;;;;;;5015029;28;20197;-85
2023/05/31 00:15:31;;;;;;;26.53;15.93;;;9.30;87.70;;;;;;5016441;28;20170;-85
2023/05/31 00:17:56;;;;;;;21.77;16.13;;;9.20;87.90;;;;;;5015470;28;20239;-86
2023/05/31 00:20:22;;;;;;;21.67;16.23;;;9.10;87.90;;;;;;5014816;28;20177;-85
2023/05/31 00:22:47;;;;;;;33.30;19.53;;;9.00;88.20;;;;;;5014754;28;20212;-85
2023/05/31 00:25:13;;;;;;;34.03;20.97;;;9.00;88.30;;;;;;5016295;28;20585;-85
2023/05/31 00:27:38;;;;;;;35.67;22.03;;;8.80;88.30;;;;;;5014575;28;20188;-85
2023/05/31 00:30:04;;;;;;;76.73;22.30;;;8.70;88.40;;;;;;5016114;28;20204;-85
2023/05/31 00:32:30;;;;;;;103.10;20.40;;;8.60;88.60;;;;;;5014617;28;20695;-85
2023/05/31 00:34:55;;;;;;;32.97;16.30;;;8.50;88.70;;;;;;5014662;28;20192;-85
2023/05/31 00:37:21;;;;;;;19.27;15.30;;;8.50;88.90;;;;;;5015757;28;20177;-85
2023/05/31 00:39:47;;;;;;;21.23;14.43;;;8.40;89.10;;;;;;5014556;28;20188;-86
2023/05/31 00:42:12;;;;;;;19.57;15.13;;;8.40;89.30;;;;;;5015511;28;20654;-86
2023/05/31 00:44:38;;;;;;;16.43;12.50;;;8.40;89.40;;;;;;5016174;28;20193;-85
2023/05/31 00:47:04;;;;;;;12.30;11.10;;;8.30;89.40;;;;;;5014327;28;20189;-85
2023/05/31 00:49:30;;;;;;;11.77;10.57;;;8.30;89.40;;;;;;5014338;28;20207;-85
2023/05/31 00:51:56;;;;;;;10.70;9.80;;;8.20;89.30;;;;;;5014628;28;20746;-85
2023/05/31 00:54:22;;;;;;;11.40;10.30;;;8.10;89.40;;;;;;5015439;28;20516;-85
2023/05/31 00:56:48;;;;;;;9.80;8.80;;;8.20;89.50;;;;;;5015400;28;20178;-85
2023/05/31 00:59:15;;;;;;;9.13;8.43;;;8.10;89.40;;;;;;5014109;28;20181;-86
2023/05/31 01:01:40;;;;;;;9.13;8.33;;;8.20;89.60;;;;;;5014074;28;20296;-84
2023/05/31 01:04:07;;;;;;;8.97;8.23;;;8.30;89.60;;;;;;5013994;28;20216;-85
2023/05/31 01:06:34;;;;;;;8.47;7.77;;;8.30;89.60;;;;;;5013918;28;20232;-85
2023/05/31 01:09:05;;;;;;;9.43;8.60;;;8.30;89.60;;;;;;5013835;28;20197;-84
2023/05/31 01:11:52;;;;;;;8.47;7.73;;;8.30;89.40;;;;;;5013823;28;20193;-85
2023/05/31 01:14:23;;;;;;;8.07;7.37;;;8.20;89.00;;;;;;5013965;28;20658;-85
2023/05/31 01:16:56;;;;;;;7.50;6.90;;;8.10;89.00;;;;;;5013902;28;20177;-85
2023/05/31 01:19:50;;;;;;;8.00;7.40;;;8.20;89.10;;;;;;5013810;28;20182;-84
2023/05/31 01:22:37;;;;;;;8.50;7.70;;;8.10;88.90;;;;;;5013553;28;20208;-84
2023/05/31 01:25:26;;;;;;;8.53;7.83;;;8.10;88.80;;;;;;5014823;28;20216;-85
2023/05/31 01:27:53;;;;;;;7.10;6.60;;;8.10;88.90;;;;;;5013690;28;20218;-85
2023/05/31 01:30:21;;;;;;;6.63;6.03;;;8.10;89.00;;;;;;5014660;28;20209;-85
2023/05/31 01:32:47;;;;;;;16.23;15.10;;;8.20;89.00;;;;;;5013383;28;20252;-85
2023/05/31 01:35:14;;;;;;;13.30;12.50;;;8.30;89.00;;;;;;5014062;28;20181;-85
2023/05/31 01:37:39;;;;;;;14.97;14.07;;;8.30;89.00;;;;;;5013549;28;20177;-84
2023/05/31 01:40:06;;;;;;;15.03;14.00;;;8.30;88.90;;;;;;5013474;28;20386;-85
2023/05/31 01:42:32;;;;;;;14.57;13.53;;;8.30;88.80;;;;;;5014805;28;20200;-85
2023/05/31 01:44:59;;;;;;;16.47;15.47;;;8.30;88.70;;;;;;5013182;28;20655;-85
2023/05/31 01:47:25;;;;;;;16.53;15.60;;;8.30;88.40;;;;;;5013522;28;20709;-84
2023/05/31 01:49:52;;;;;;;16.73;15.60;;;8.30;88.10;;;;;;5014327;28;20203;-84
2023/05/31 01:52:20;;;;;;;17.07;16.07;;;8.30;87.90;;;;;;5014353;28;20193;-84
2023/05/31 01:54:46;;;;;;;5.93;5.53;;;8.30;87.80;;;;;;5014322;28;20260;-84
2023/05/31 01:57:13;;;;;;;6.33;5.93;;;8.30;87.70;;;;;;5013043;28;20262;-85
2023/05/31 01:59:39;;;;;;;6.10;5.70;;;8.30;87.50;;;;;;5013035;28;20187;-85
2023/05/31 02:02:06;;;;;;;6.50;6.10;;;8.30;87.40;;;;;;5012892;28;20698;-84
2023/05/31 02:04:31;;;;;;;6.43;6.03;;;8.20;87.10;;;;;;5012795;28;20719;-84
2023/05/31 02:06:57;;;;;;;6.80;6.33;;;8.20;86.80;;;;;;5012866;28;20290;-85
2023/05/31 02:09:23;;;;;;;7.03;6.53;;;8.20;86.60;;;;;;5012749;28;20283;-85
2023/05/31 02:11:49;;;;;;;6.80;6.40;;;8.10;86.30;;;;;;5012740;28;20224;-84
2023/05/31 02:14:15;;;;;;;7.10;6.70;;;8.10;86.10;;;;;;5014008;28;20223;-85
2023/05/31 02:16:40;;;;;;;6.73;6.33;;;8.10;85.90;;;;;;5012711;28;20183;-85
2023/05/31 02:19:06;;;;;;;7.50;6.90;;;8.00;85.70;;;;;;5012678;28;20276;-84
2023/05/31 02:21:37;;;;;;;6.87;6.30;;;8.00;85.40;;;;;;5012800;28;20268;-84
2023/05/31 02:24:03;;;;;;;7.50;6.90;;;8.00;85.30;;;;;;5012611;28;20185;-84
2023/05/31 02:26:28;;;;;;;7.37;6.87;;;7.90;85.20;;;;;;5012527;28;20212;-85
2023/05/31 02:28:54;;;;;;;7.30;6.80;;;7.90;84.90;;;;;;5012405;28;20228;-84
2023/05/31 02:31:19;;;;;;;7.93;7.33;;;7.80;84.80;;;;;;5012476;28;20184;-84
2023/05/31 02:33:45;;;;;;;8.10;7.57;;;7.80;84.70;;;;;;5013271;28;20193;-85
2023/05/31 02:36:11;;;;;;;7.87;6.97;;;7.80;84.60;;;;;;5012491;28;20173;-85
2023/05/31 02:38:37;;;;;;;7.70;7.10;;;7.80;84.60;;;;;;5013759;28;20178;-85
2023/05/31 02:41:02;;;;;;;8.30;7.70;;;7.70;84.50;;;;;;5012296;28;20262;-84
2023/05/31 02:43:30;;;;;;;9.60;8.70;;;7.70;84.50;;;;;;5012337;28;20566;-85
2023/05/31 02:45:55;;;;;;;8.67;8.07;;;7.70;84.60;;;;;;5012372;28;20181;-85
2023/05/31 02:48:21;;;;;;;9.23;8.43;;;7.70;84.70;;;;;;5012245;28;20191;-85
2023/05/31 02:50:46;;;;;;;8.90;8.10;;;7.70;84.80;;;;;;5013446;28;20170;-85
2023/05/31 02:53:12;;;;;;;10.20;8.97;;;7.70;85.10;;;;;;5012145;28;20323;-85
2023/05/31 02:55:38;;;;;;;9.77;8.97;;;7.70;85.80;;;;;;5016111;28;20177;-85
2023/05/31 02:58:03;;;;;;;12.60;8.93;;;7.70;85.90;;;;;;5012255;28;20208;-85
2023/05/31 03:00:29;;;;;;;9.70;8.77;;;7.80;85.80;;;;;;5013515;28;20206;-85
2023/05/31 03:02:54;;;;;;;9.07;8.20;;;7.70;85.70;;;;;;5012071;28;20622;-85
2023/05/31 03:05:20;;;;;;;8.70;7.90;;;7.70;85.50;;;;;;5012266;28;20639;-85
2023/05/31 03:07:46;;;;;;;9.70;8.90;;;7.70;85.40;;;;;;5012107;28;20534;-85
2023/05/31 03:10:12;;;;;;;8.70;8.00;;;7.70;85.30;;;;;;5013770;28;20722;-85
2023/05/31 03:12:38;;;;;;;9.70;8.93;;;7.70;85.60;;;;;;5011951;28;20292;-84
2023/05/31 03:15:04;;;;;;;9.00;8.20;;;7.70;85.80;;;;;;5012219;28;20693;-85
2023/05/31 03:17:30;;;;;;;9.70;8.73;;;7.80;85.90;;;;;;5016011;28;20264;-85
2023/05/31 03:19:59;;;;;;;12.00;9.70;;;7.80;85.90;;;;;;5016229;28;20181;-85
2023/05/31 03:22:25;;;;;;;9.90;9.07;;;7.90;86.00;;;;;;5015874;28;20200;-85
2023/05/31 03:24:50;;;;;;;10.77;9.17;;;8.00;85.80;;;;;;5015807;28;20177;-85
2023/05/31 03:27:16;;;;;;;20.47;18.87;;;7.90;85.50;;;;;;5015828;28;20185;-85
2023/05/31 03:29:42;;;;;;;20.80;19.07;;;7.80;85.20;;;;;;5015740;28;20579;-85
2023/05/31 03:32:08;;;;;;;21.00;19.40;;;7.90;85.10;;;;;;5015551;28;20212;-85
2023/05/31 03:34:34;;;;;;;21.87;20.17;;;7.90;85.00;;;;;;5016890;28;20196;-84
2023/05/31 03:37:00;;;;;;;22.03;20.33;;;8.00;84.90;;;;;;5015544;28;20173;-85
2023/05/31 03:39:26;;;;;;;20.57;19.07;;;8.00;84.80;;;;;;5015614;28;20182;-85
2023/05/31 03:41:51;;;;;;;19.17;17.47;;;8.00;84.70;;;;;;5016789;28;20201;-85
2023/05/31 03:44:17;;;;;;;19.87;18.40;;;7.90;84.60;;;;;;5015552;28;20216;-85
2023/05/31 03:46:42;;;;;;;19.50;18.00;;;7.90;84.50;;;;;;5015479;28;20181;-85
2023/05/31 03:49:08;;;;;;;9.93;9.07;;;8.00;84.50;;;;;;5015345;28;20209;-85
2023/05/31 03:51:34;;;;;;;9.70;8.70;;;8.10;84.60;;;;;;5015350;28;20201;-84
2023/05/31 03:54:00;;;;;;;9.23;8.10;;;8.20;84.50;;;;;;5015342;28;20181;-85
2023/05/31 03:56:25;;;;;;;9.80;8.20;;;8.40;84.50;;;;;;5015265;28;20178;-85
2023/05/31 03:58:51;;;;;;;9.47;8.00;;;8.60;84.40;;;;;;5015235;28;20314;-85
2023/05/31 04:01:17;;;;;;;11.73;8.73;;;8.70;84.20;;;;;;5016336;28;20543;-85
2023/05/31 04:03:43;;;;;;;10.37;8.00;;;8.80;84.10;;;;;;5015280;28;20193;-85
2023/05/31 04:06:08;;;;;;;8.53;7.73;;;9.00;83.90;;;;;;5015223;28;20280;-85
2023/05/31 04:08:35;;;;;;;9.87;8.00;;;9.10;83.70;;;;;;5015008;28;20348;-85
2023/05/31 04:11:00;;;;;;;8.10;7.30;;;9.30;83.40;;;;;;5016479;28;20655;-85
2023/05/31 04:13:26;;;;;;;9.00;8.10;;;9.40;83.10;;;;;;5016073;28;20201;-85
2023/05/31 04:15:52;;;;;;;8.17;7.37;;;9.50;83.00;;;;;;5014833;28;20264;-85
2023/05/31 04:18:17;;;;;;;9.93;7.47;;;9.50;83.10;;;;;;5015433;28;20181;-85
2023/05/31 04:20:43;;;;;;;9.13;7.63;;;9.60;83.10;;;;;;5015066;28;20556;-85
2023/05/31 04:23:08;;;;;;;8.43;7.53;;;9.50;83.10;;;;;;5016147;28;20189;-85
2023/05/31 04:25:34;;;;;;;7.80;7.00;;;9.50;83.10;;;;;;5014758;28;20178;-85
2023/05/31 04:27:59;;;;;;;9.70;8.70;;;9.40;83.20;;;;;;5013614;28;20173;-85
2023/05/31 04:30:26;;;;;;;8.53;7.80;;;9.50;83.70;;;;;;5014487;28;20205;-85
2023/05/31 04:32:52;;;;;;;8.73;7.97;;;9.50;84.10;;;;;;5014363;28;20228;-85
2023/05/31 04:35:18;;;;;;;8.60;7.70;;;9.60;84.60;;;;;;5014572;28;20166;-85
2023/05/31 04:37:44;;;;;;;8.80;7.90;;;9.70;84.80;;;;;;5014544;28;20184;-85
2023/05/31 04:40:10;;;;;;;12.23;8.47;;;9.70;84.90;;;;;;5014438;28;20173;-84
2023/05/31 04:42:36;;;;;;;15.17;11.30;;;9.80;84.80;;;;;;5014404;28;20204;-85
2023/05/31 04:45:04;;;;;;;13.40;11.60;;;9.80;85.00;;;;;;5014409;28;20543;-85
2023/05/31 04:47:31;;;;;;;17.90;12.40;;;9.80;85.90;;;;;;5014470;28;20562;-85
2023/05/31 04:49:57;;;;;;;14.00;12.20;;;9.90;86.70;;;;;;5014297;28;20224;-85
2023/05/31 04:52:26;;;;;;;14.40;11.27;;;9.90;87.20;;;;;;5014183;28;20570;-85
2023/05/31 04:54:53;;;;;;;14.47;12.60;;;9.90;87.20;;;;;;5014260;28;20640;-85
2023/05/31 04:57:19;;;;;;;19.50;13.83;;;10.00;87.70;;;;;;5014235;28;20184;-85
2023/05/31 04:59:44;;;;;;;17.50;13.33;;;10.20;88.50;;;;;;5015682;28;20173;-85
2023/05/31 05:02:10;;;;;;;25.37;14.17;;;10.20;88.90;;;;;;5014132;28;20636;-84
2023/05/31 05:04:35;;;;;;;19.77;14.10;;;10.20;89.20;;;;;;5014117;28;20204;-85
2023/05/31 05:07:01;;;;;;;21.07;13.40;;;10.30;89.40;;;;;;5014028;28;20196;-85
2023/05/31 05:09:26;;;;;;;15.20;13.27;;;10.30;89.50;;;;;;5013928;28;20242;-85
2023/05/31 05:11:54;;;;;;;17.03;13.40;;;10.30;89.70;;;;;;5014348;28;20197;-85
2023/05/31 05:14:19;;;;;;;17.23;12.50;;;10.40;89.90;;;;;;5013954;28;20177;-85
2023/05/31 05:16:45;;;;;;;21.77;13.97;;;10.50;90.10;;;;;;5013851;28;20260;-85
2023/05/31 05:19:11;;;;;;;21.97;13.53;;;10.60;90.20;;;;;;5013796;28;20188;-85
2023/05/31 05:21:37;;;;;;;16.80;12.27;;;10.70;90.40;;;;;;5013807;28;20205;-85
2023/05/31 05:24:02;;;;;;;21.30;13.40;;;10.80;90.40;;;;;;5014126;28;20173;-85
2023/05/31 05:26:28;;;;;;;22.83;12.77;;;10.90;90.50;;;;;;5013882;28;20212;-85
2023/05/31 05:28:53;;;;;;;17.73;12.90;;;11.00;90.60;;;;;;5013514;28;20215;-85
2023/05/31 05:31:19;;;;;;;20.43;12.73;;;11.20;90.70;;;;;;5013255;28;20218;-85
2023/05/31 05:33:45;;;;;;;20.47;12.77;;;11.20;90.70;;;;;;5014797;28;20619;-85
2023/05/31 05:36:10;;;;;;;17.07;13.00;;;11.40;90.80;;;;;;5013415;28;20182;-85
2023/05/31 05:38:36;;;;;;;18.37;12.63;;;11.60;90.80;;;;;;5014283;28;20181;-85
2023/05/31 05:41:02;;;;;;;17.07;12.53;;;11.70;90.80;;;;;;5013381;28;20188;-85
2023/05/31 05:43:29;;;;;;;16.30;12.13;;;11.90;90.80;;;;;;5014219;28;20201;-85
2023/05/31 05:45:55;;;;;;;25.37;16.77;;;11.90;90.50;;;;;;5013967;28;20547;-85
2023/05/31 05:48:20;;;;;;;24.97;16.13;;;12.00;90.50;;;;;;5013198;28;20177;-85
2023/05/31 05:50:46;;;;;;;21.13;15.80;;;12.20;90.50;;;;;;5013223;28;20181;-85
2023/05/31 05:53:11;;;;;;;19.63;15.60;;;12.30;90.30;;;;;;5013132;28;20209;-85
2023/05/31 05:55:38;;;;;;;19.00;16.13;;;12.50;90.40;;;;;;5013227;28;20188;-85
2023/05/31 05:58:03;;;;;;;21.53;17.20;;;12.40;89.80;;;;;;5013229;28;20181;-85
2023/05/31 06:00:29;;;;;;;16.77;11.77;;;12.40;89.60;;;;;;5012932;28;20184;-85
2023/05/31 06:02:54;;;;;;;15.97;10.33;;;12.60;89.40;;;;;;5012991;28;20670;-85
2023/05/31 06:05:25;;;;;;;18.43;10.00;;;12.60;89.00;;;;;;5012936;28;20205;-86
2023/05/31 06:07:51;;;;;;;14.23;10.53;;;12.60;88.50;;;;;;5014143;28;20157;-85
2023/05/31 06:10:17;;;;;;;13.83;11.27;;;12.90;88.70;;;;;;5014002;28;20276;-85
2023/05/31 06:12:43;;;;;;;18.13;11.17;;;12.90;87.90;;;;;;5012832;28;20280;-85
2023/05/31 06:15:09;;;;;;;14.63;10.67;;;13.10;87.90;;;;;;5013955;28;20184;-85
2023/05/31 06:17:34;;;;;;;14.73;10.77;;;13.00;86.50;;;;;;5013869;28;20177;-85
2023/05/31 06:20:00;;;;;;;12.80;10.37;;;13.10;86.30;;;;;;5012670;28;20177;-85
2023/05/31 06:22:26;;;;;;;13.73;10.47;;;13.20;85.80;;;;;;5013733;28;20203;-85
2023/05/31 06:24:53;;;;;;;16.03;10.47;;;13.20;85.10;;;;;;5012529;28;20276;-84
2023/05/31 06:27:19;;;;;;;19.17;11.10;;;13.10;82.70;;;;;;5012618;28;20255;-85
2023/05/31 06:29:44;;;;;;;14.47;10.53;;;13.30;83.00;;;;;;5012383;28;20672;-85
2023/05/31 06:32:10;;;;;;;15.17;9.40;;;13.40;83.00;;;;;;5013637;28;20248;-85
2023/05/31 06:34:35;;;;;;;18.73;11.47;;;13.50;83.30;;;;;;5012421;28;20283;-85
2023/05/31 06:37:01;;;;;;;15.43;9.73;;;13.50;83.40;;;;;;5013700;28;20173;-85
2023/05/31 06:39:27;;;;;;;11.90;9.53;;;13.60;83.60;;;;;;5012347;28;20181;-85
2023/05/31 06:41:53;;;;;;;11.07;9.87;;;13.70;83.60;;;;;;5012248;28;20229;-84
2023/05/31 06:44:18;;;;;;;13.50;10.23;;;13.70;82.60;;;;;;5013482;28;20181;-85
2023/05/31 06:46:44;;;;;;;13.57;9.37;;;13.70;81.10;;;;;;5012365;28;20178;-85
2023/05/31 06:49:09;;;;;;;10.73;8.57;;;13.80;81.10;;;;;;5013802;28;20204;-84
2023/05/31 06:51:35;;;;;;;18.97;8.70;;;14.00;82.00;;;;;;5011500;28;20738;-84
2023/05/31 06:54:00;;;;;;;13.70;9.43;;;14.10;82.20;;;;;;5013452;28;20177;-85
2023/05/31 06:56:27;;;;;;;12.47;8.60;;;14.20;82.60;;;;;;5013470;28;20185;-85
2023/05/31 06:58:53;;;;;;;12.93;8.30;;;14.10;82.30;;;;;;5012461;28;20197;-85
2023/05/31 07:01:18;;;;;;;10.90;8.27;;;14.20;81.50;;;;;;5013337;28;20181;-85
2023/05/31 07:03:44;;;;;;;11.07;8.10;;;14.20;81.60;;;;;;5012162;28;20181;-85
2023/05/31 07:06:10;;;;;;;12.87;8.97;;;14.20;81.10;;;;;;5013426;28;20224;-85
2023/05/31 07:08:35;;;;;;;11.70;8.93;;;14.20;80.20;;;;;;5013300;28;20529;-85
2023/05/31 07:11:01;;;;;;;10.93;9.90;;;14.30;78.90;;;;;;5013442;28;20165;-85
2023/05/31 07:13:27;;;;;;;13.53;9.77;;;14.30;75.90;;;;;;5011985;28;20209;-86
2023/05/31 07:15:52;;;;;;;10.50;8.70;;;14.40;75.90;;;;;;5013548;28;20165;-85
2023/05/31 07:18:18;;;;;;;12.57;9.00;;;14.60;76.50;;;;;;5012005;28;20182;-85
2023/05/31 07:20:43;;;;;;;14.17;8.27;;;14.80;77.40;;;;;;5012123;28;20573;-85
2023/05/31 07:23:09;;;;;;;15.83;9.47;;;15.00;79.10;;;;;;5011944;28;20197;-86
2023/05/31 07:25:34;;;;;;;17.60;9.80;;;14.90;78.40;;;;;;5013202;28;20200;-84
2023/05/31 07:28:00;;;;;;;14.38;8.82;;;15.10;79.20;;;;;;5011971;28;20703;-85
2023/05/31 07:30:26;;;;;;;13.63;8.35;;;15.10;79.20;;;;;;5011805;28;20204;-85
2023/05/31 07:32:52;;;;;;;13.48;8.00;;;15.20;78.40;;;;;;5011613;28;20215;-85
2023/05/31 07:35:17;;;;;;;14.23;7.78;;;15.40;79.00;;;;;;5013042;28;20547;-85
2023/05/31 07:37:43;;;;;;;17.17;8.77;;;15.40;77.80;;;;;;5011840;28;20173;-86
2023/05/31 07:40:08;;;;;;;12.63;8.60;;;15.50;75.90;;;;;;5011865;28;20177;-86
2023/05/31 07:42:34;;;;;;;9.15;8.13;;;15.70;75.40;;;;;;5011804;28;20224;-85
2023/05/31 07:45:00;;;;;;;10.48;7.47;;;15.60;73.80;;;;;;5012194;28;20224;-85
2023/05/31 07:47:25;;;;;;;10.18;8.60;;;15.80;74.00;;;;;;5013300;28;20664;-86
2023/05/31 07:49:51;;;;;;;11.60;8.93;;;15.80;72.60;;;;;;5011679;28;20204;-85
2023/05/31 07:52:21;;;;;;;11.98;9.27;;;16.00;71.60;;;;;;5012897;28;20189;-85
2023/05/31 07:54:50;;;;;;;16.50;9.65;;;16.00;71.70;;;;;;5011906;28;20631;-85
2023/05/31 07:57:16;;;;;;;16.38;10.13;;;16.00;71.80;;;;;;5011755;28;20173;-85
2023/05/31 07:59:42;;;;;;;15.45;9.93;;;16.10;70.90;;;;;;5013031;28;20235;-85
2023/05/31 08:02:07;;;;;;;17.17;9.30;;;16.20;71.50;;;;;;5014745;28;20671;-86
2023/05/31 08:04:33;;;;;;;12.73;9.63;;;16.30;71.80;;;;;;5015216;28;20669;-85
2023/05/31 08:06:58;;;;;;;13.50;10.70;;;16.60;71.10;;;;;;5015126;28;20231;-85
2023/05/31 08:09:24;;;;;;;12.93;9.63;;;16.70;70.30;;;;;;5016270;28;20193;-86
2023/05/31 08:11:51;;;;;;;12.63;9.07;;;16.70;71.10;;;;;;5016227;28;20335;-85
2023/05/31 08:14:17;;;;;;;18.35;11.85;;;16.90;72.10;;;;;;5016161;28;20185;-86
2023/05/31 08:16:42;;;;;;;14.52;11.70;;;17.00;70.30;;;;;;5015093;28;20546;-86
2023/05/31 08:19:08;;;;;;;17.55;13.70;;;17.10;68.00;;;;;;5016276;28;20232;-86
2023/05/31 08:21:36;;;;;;;14.63;13.35;;;17.20;66.20;;;;;;5014841;28;20672;-85
2023/05/31 08:24:02;;;;;;;20.23;12.95;;;17.20;65.50;;;;;;5014958;28;20258;-85
2023/05/31 08:26:28;;;;;;;15.88;14.05;;;17.40;67.50;;;;;;5014896;28;20188;-86
2023/05/31 08:28:53;;;;;;;17.23;15.05;;;17.70;65.60;;;;;;5015850;28;20546;-86
2023/05/31 08:31:19;;;;;;;16.02;14.40;;;17.70;63.50;;;;;;5014443;28;20611;-85
2023/05/31 08:33:55;;;;;;;16.02;13.25;;;18.00;63.80;;;;;;5014756;28;20191;-86
2023/05/31 08:36:22;;;;;;;14.20;12.87;;;18.10;62.20;;;;;;5014731;28;20207;-85
2023/05/31 08:38:47;;;;;;;13.20;11.90;;;18.30;63.90;;;;;;5014564;28;20189;-85
2023/05/31 08:41:13;;;;;;;13.93;12.43;;;18.40;62.00;;;;;;5015690;28;20521;-85
2023/05/31 08:43:39;;;;;;;13.85;12.48;;;18.40;61.30;;;;;;5014559;28;20199;-86
2023/05/31 08:46:07;;;;;;;17.08;14.20;;;18.10;62.40;;;;;;5014396;28;20177;-85
2023/05/31 08:48:44;;;;;;;13.23;12.13;;;17.90;62.70;;;;;;5014974;28;20173;-86
2023/05/31 08:51:10;;;;;;;13.57;12.23;;;18.00;62.80;;;;;;5016037;28;20226;-86
2023/05/31 08:53:36;;;;;;;14.25;12.40;;;18.20;64.90;;;;;;5015055;28;20245;-86
2023/05/31 08:56:04;;;;;;;13.65;12.45;;;18.70;63.40;;;;;;5015102;28;20186;-86
2023/05/31 08:58:30;;;;;;;15.27;13.88;;;18.90;62.90;;;;;;5014692;28;20178;-86
2023/05/31 09:00:56;;;;;;;15.25;13.55;;;19.10;61.30;;;;;;5015210;28;20265;-87
2023/05/31 09:03:22;;;;;;;15.18;13.82;;;19.00;61.80;;;;;;5015798;28;20193;-86
2023/05/31 09:05:48;;;;;;;15.15;13.63;;;19.20;59.20;;;;;;5014553;28;20559;-86
2023/05/31 09:08:14;;;;;;;15.77;14.27;;;19.30;60.50;;;;;;5015522;28;20174;-86
2023/05/31 09:10:40;;;;;;;15.00;13.60;;;19.20;58.30;;;;;;5014234;28;20204;-85
2023/05/31 09:13:07;;;;;;;15.25;13.68;;;19.40;59.40;;;;;;5013786;28;20197;-86
2023/05/31 09:15:36;;;;;;;15.95;14.30;;;19.30;58.20;;;;;;5014047;28;20176;-85
2023/05/31 09:18:20;;;;;;;16.08;14.60;;;19.70;56.40;;;;;;5015255;28;20196;-85
2023/05/31 09:20:49;;;;;;;16.27;14.85;;;19.70;56.00;;;;;;5015096;28;20177;-87
2023/05/31 09:23:17;;;;;;;16.05;14.52;;;19.70;56.10;;;;;;5013858;28;20683;-86
2023/05/31 09:25:50;;;;;;;17.20;15.30;;;19.70;55.40;;;;;;5013689;28;20181;-86
2023/05/31 09:28:18;;;;;;;17.05;15.55;;;19.50;56.00;;;;;;5013658;28;20170;-85
2023/05/31 09:30:44;;;;;;;17.05;15.45;;;19.50;57.60;;;;;;5015081;28;20611;-85
2023/05/31 09:33:10;;;;;;;16.80;15.10;;;19.50;53.90;;;;;;5013576;28;20201;-85
2023/05/31 09:35:36;;;;;;;16.80;15.20;;;19.70;55.50;;;;;;5014318;28;20205;-87
2023/05/31 09:38:06;;;;;;;16.45;14.98;;;20.00;52.60;;;;;;5013910;28;20217;-86
2023/05/31 09:40:33;;;;;;;18.42;16.52;;;20.00;55.40;;;;;;5013804;28;20177;-85
2023/05/31 09:42:59;;;;;;;18.70;16.52;;;20.00;57.00;;;;;;5014522;28;20332;-84
2023/05/31 09:45:25;;;;;;;18.08;16.35;;;20.50;56.70;;;;;;5014435;28;20181;-85
2023/05/31 09:47:51;;;;;;;17.60;15.70;;;20.10;56.50;;;;;;5013208;28;20181;-85
2023/05/31 09:50:22;;;;;;;17.17;15.43;;;20.30;59.40;;;;;;5013377;28;20197;-84
2023/05/31 09:52:51;;;;;;;18.20;16.35;;;20.70;59.60;;;;;;5013187;28;20216;-85
2023/05/31 09:55:17;;;;;;;19.02;15.95;;;20.80;57.70;;;;;;5013103;28;20174;-84
2023/05/31 09:57:44;;;;;;;17.65;15.95;;;21.10;56.80;;;;;;5014210;28;20674;-86
2023/05/31 10:00:20;;;;;;;17.50;16.10;;;21.20;55.00;;;;;;5013526;28;20173;-86
2023/05/31 10:02:54;;;;;;;17.08;15.55;;;21.10;55.30;;;;;;5013314;28;20201;-86
2023/05/31 10:05:21;;;;;;;17.15;15.75;;;21.20;55.90;;;;;;5013596;28;20212;-86
2023/05/31 10:07:48;;;;;;;17.48;15.80;;;21.30;56.40;;;;;;5014690;28;20201;-85
2023/05/31 10:10:15;;;;;;;16.98;15.60;;;21.50;55.40;;;;;;5012653;28;20763;-85
2023/05/31 10:13:08;;;;;;;18.27;16.45;;;21.20;56.60;;;;;;5013982;28;20536;-85
2023/05/31 10:15:36;;;;;;;16.80;15.50;;;21.00;59.20;;;;;;5012021;28;20192;-84
2023/05/31 10:18:11;;;;;;;15.93;14.60;;;20.80;57.10;;;;;;5015129;28;20207;-84
2023/05/31 10:20:56;;;;;;;17.60;15.88;;;20.60;58.30;;;;;;5014150;28;20168;-84
2023/05/31 10:23:23;;;;;;;19.15;16.60;;;20.70;58.90;;;;;;5012953;28;20196;-84
2023/05/31 10:25:57;;;;;;;17.30;15.80;;;21.00;58.00;;;;;;5014531;28;20177;-84
2023/05/31 10:28:28;;;;;;;17.90;16.23;;;20.90;57.90;;;;;;5012569;28;20176;-84
2023/05/31 10:30:56;;;;;;;17.30;15.85;;;21.40;58.30;;;;;;5015214;28;20162;-85
2023/05/31 10:33:28;;;;;;;17.75;16.05;;;21.80;57.80;;;;;;5013948;28;20205;-85
2023/05/31 10:35:55;;;;;;;20.65;15.30;;;21.70;58.60;;;;;;5014821;28;20192;-85
2023/05/31 10:38:27;;;;;;;17.73;15.95;;;21.90;57.20;;;;;;5012880;28;20578;-84
2023/05/31 10:40:59;;;;;;;17.75;15.95;;;21.80;58.10;;;;;;5012553;28;20631;-85
2023/05/31 10:43:46;;;;;;;20.77;15.10;;;21.80;59.80;;;;;;5012520;28;20733;-85
2023/05/31 10:46:18;;;;;;;17.80;16.02;;;22.20;58.60;;;;;;5013246;28;20602;-84
2023/05/31 10:48:55;;;;;;;16.05;14.60;;;22.20;58.00;;;;;;5013602;28;20189;-85
2023/05/31 10:51:41;;;;;;;16.00;14.57;;;22.10;58.00;;;;;;5012346;28;20177;-85
2023/05/31 10:54:07;;;;;;;17.33;15.85;;;21.80;56.50;;;;;;5012568;28;20307;-85
2023/05/31 10:56:36;;;;;;;15.82;14.43;;;21.60;57.90;;;;;;5013514;28;20197;-84
2023/05/31 10:59:03;;;;;;;16.88;15.38;;;21.20;58.30;;;;;;5012567;28;20177;-85
2023/05/31 11:01:29;;;;;;;19.83;15.90;;;21.70;60.50;;;;;;5012501;28;20690;-85
2023/05/31 11:03:58;;;;;;;17.85;16.17;;;22.00;58.40;;;;;;5012294;28;20192;-85
2023/05/31 11:06:30;;;;;;;18.13;16.30;;;22.10;58.60;;;;;;5012069;28;20205;-83
2023/05/31 11:08:59;;;;;;;18.02;15.85;;;22.10;58.40;;;;;;5013582;28;20693;-84
2023/05/31 11:11:27;;;;;;;18.35;15.68;;;21.30;59.90;;;;;;5012069;28;20256;-85
2023/05/31 11:14:25;;;;;;;21.02;15.55;;;21.80;59.10;;;;;;5013455;28;20169;-86
2023/05/31 11:16:53;;;;;;;17.33;15.20;;;22.30;58.10;;;;;;5010888;28;20336;-85
2023/05/31 11:19:21;;;;;;;17.38;15.80;;;22.10;59.20;;;;;;5013385;28;20205;-86
2023/05/31 11:21:54;;;;;;;16.70;15.07;;;22.10;59.10;;;;;;5012289;28;20197;-85
2023/05/31 11:24:29;;;;;;;17.15;15.65;;;22.00;59.00;;;;;;5013327;28;20154;-86
2023/05/31 11:27:10;;;;;;;16.77;15.18;;;22.10;57.10;;;;;;5013805;28;20188;-85
2023/05/31 11:29:46;;;;;;;17.10;15.57;;;22.10;57.30;;;;;;5013011;28;20204;-86
2023/05/31 11:32:12;;;;;;;16.38;14.77;;;22.00;57.00;;;;;;5013415;28;20805;-86
2023/05/31 11:34:56;;;;;;;15.80;14.55;;;22.20;56.20;;;;;;5017206;28;20209;-86
2023/05/31 11:37:32;;;;;;;17.20;15.45;;;21.70;56.60;;;;;;5015255;28;20184;-86
2023/05/31 11:40:05;;;;;;;16.52;14.88;;;21.70;56.80;;;;;;5017642;28;20161;-85
2023/05/31 11:42:32;;;;;;;15.95;14.65;;;22.00;55.50;;;;;;5016200;28;20255;-86
2023/05/31 11:45:03;;;;;;;16.55;15.15;;;22.10;54.90;;;;;;5017250;28;20268;-85
2023/05/31 11:47:33;;;;;;;16.52;14.80;;;22.40;53.80;;;;;;5018055;28;20169;-86
2023/05/31 11:50:00;;;;;;;15.82;13.90;;;22.70;53.10;;;;;;5017339;28;20204;-85
2023/05/31 11:52:26;;;;;;;15.77;14.20;;;22.80;52.40;;;;;;5017354;28;20197;-86
2023/05/31 11:54:54;;;;;;;16.02;14.45;;;22.50;52.50;;;;;;5018759;28;20178;-85
2023/05/31 11:57:20;;;;;;;16.02;14.68;;;22.10;54.20;;;;;;5016246;28;20546;-86
2023/05/31 11:59:46;;;;;;;15.65;14.57;;;22.50;53.90;;;;;;5016005;28;20260;-84
2023/05/31 12:02:12;;;;;;;16.10;14.55;;;22.70;53.50;;;;;;5015522;28;20197;-85
2023/05/31 12:04:39;;;;;;;20.17;16.25;;;22.20;53.40;;;;;;5015516;28;20185;-85
2023/05/31 12:07:07;;;;;;;16.30;15.00;;;22.20;54.40;;;;;;5015391;28;20330;-85
2023/05/31 12:09:33;;;;;;;17.23;15.60;;;22.80;51.50;;;;;;5015214;28;20201;-85
2023/05/31 12:12:02;;;;;;;16.65;15.32;;;22.80;53.10;;;;;;5016506;28;20679;-85
2023/05/31 12:14:28;;;;;;;16.40;15.00;;;22.60;51.20;;;;;;5016958;28;20190;-86
2023/05/31 12:16:54;;;;;;;16.17;14.82;;;23.00;53.00;;;;;;5015519;28;20213;-85
2023/05/31 12:19:20;;;;;;;16.65;15.35;;;22.90;51.30;;;;;;5015260;28;20717;-85
2023/05/31 12:21:47;;;;;;;16.85;15.40;;;22.60;51.40;;;;;;5015370;28;20699;-86
2023/05/31 12:24:15;;;;;;;17.35;15.65;;;22.10;52.60;;;;;;5015514;28;20173;-85
2023/05/31 12:26:43;;;;;;;16.80;15.10;;;22.00;55.30;;;;;;5015393;28;20181;-86
2023/05/31 12:29:09;;;;;;;16.38;15.05;;;22.50;55.00;;;;;;5014831;28;20685;-85
2023/05/31 12:31:37;;;;;;;17.17;15.55;;;22.40;53.60;;;;;;5017196;28;20605;-86
2023/05/31 12:34:05;;;;;;;20.33;16.00;;;22.30;54.80;;;;;;5016431;28;20193;-86
2023/05/31 12:36:45;;;;;;;16.90;15.50;;;22.60;53.10;;;;;;5014792;28;20170;-86